Aviation Digital Data Service (ADDS)

Output produced by METARs form (1103 UTC 30 April 2017)
found at http://www.aviationweather.gov/adds/metars/
 
MRLB 300600Z 3006/0106 09010KT 9999 FEW035 TX36/3019Z TN23/3011Z 
     TEMPO 3010/3014 VRB02KT 
     TEMPO 3019/3023 27008KT RA FEW025TCU
       
MRPV 300600Z 3006/0106 05007KT 9999 FEW030 TX30/3018Z TN19/3010Z 
     BECMG 3018/3020 25012KT SCT025TCU 
     TEMPO 3020/2024 3000 TSRA SCT015CB BKN030
       
MRLM 300600Z 3006/0106 08007KT 9999 FEW020 TX31/3020Z TN23/3011Z 
     FM302300Z VRB02KT SCT025 
     TEMPO 0105/0113 25007KT SCT020 
       
MROC 301100Z 11005KT CAVOK 20/18 A2997 NOSIG
MROC 300600Z 3006/0106 06006KT 9999 FEW030 TX31/3018Z TN20/3011Z 
     BECMG 3017/3019 24009KT FEW025TCU 
     TEMPO 3020/3023 5000 TSRA SCT020CB